createdAt,value
2023-05-15T00:01:28.649Z,18.80
2023-05-15T00:04:14.512Z,18.80
2023-05-15T00:07:00.132Z,18.80
2023-05-15T00:09:45.630Z,18.80
2023-05-15T00:12:31.252Z,18.80
2023-05-15T00:15:17.354Z,18.80
2023-05-15T00:18:03.141Z,18.80
2023-05-15T00:20:49.055Z,18.80
2023-05-15T00:23:34.414Z,18.80
2023-05-15T00:26:20.916Z,18.70
2023-05-15T00:29:06.840Z,18.60
2023-05-15T00:31:53.435Z,18.60
2023-05-15T00:34:39.919Z,18.50
2023-05-15T00:37:26.380Z,18.50
2023-05-15T00:40:20.029Z,18.40
2023-05-15T00:43:07.050Z,18.40
2023-05-15T00:45:54.563Z,18.40
2023-05-15T00:48:42.472Z,18.40
2023-05-15T00:51:27.998Z,18.40
2023-05-15T00:54:14.172Z,18.50
2023-05-15T00:57:04.207Z,18.50
2023-05-15T00:59:52.674Z,18.50
2023-05-15T01:02:38.728Z,18.50
2023-05-15T01:05:26.603Z,18.50
2023-05-15T01:08:44.352Z,18.50
2023-05-15T01:11:36.665Z,18.50
2023-05-15T01:14:22.872Z,18.50
2023-05-15T01:17:10.083Z,18.50
2023-05-15T01:19:59.158Z,18.50
2023-05-15T01:23:06.647Z,18.50
2023-05-15T01:26:46.083Z,18.50
2023-05-15T01:30:01.441Z,18.60
2023-05-15T01:33:12.234Z,18.60
2023-05-15T01:36:15.073Z,18.60
2023-05-15T01:39:03.596Z,18.60
2023-05-15T01:41:58.529Z,18.60
2023-05-15T01:44:52.162Z,18.50
2023-05-15T01:47:45.771Z,18.50
2023-05-15T01:50:35.098Z,18.50
2023-05-15T01:53:21.636Z,18.40
2023-05-15T01:56:10.044Z,18.50
2023-05-15T01:58:57.859Z,18.50
2023-05-15T02:01:45.591Z,18.50
2023-05-15T02:04:37.565Z,18.50
2023-05-15T02:07:24.271Z,18.50
2023-05-15T02:10:13.415Z,18.50
2023-05-15T02:13:00.374Z,18.50
2023-05-15T02:15:46.355Z,18.50
2023-05-15T02:18:36.099Z,18.50
2023-05-15T02:21:22.847Z,18.50
2023-05-15T02:24:09.948Z,18.50
2023-05-15T02:27:32.295Z,18.40
2023-05-15T02:30:35.806Z,18.40
2023-05-15T02:33:54.720Z,18.30
2023-05-15T02:36:45.014Z,18.30
2023-05-15T02:39:33.097Z,18.20
2023-05-15T02:42:18.971Z,18.20
2023-05-15T02:45:06.595Z,18.10
2023-05-15T02:47:53.765Z,18.10
2023-05-15T02:50:39.574Z,18.10
2023-05-15T02:53:25.671Z,18.00
2023-05-15T02:56:11.615Z,18.00
2023-05-15T02:58:57.590Z,17.90
2023-05-15T03:01:43.363Z,17.90
2023-05-15T03:04:30.009Z,17.90
2023-05-15T03:07:15.838Z,17.80
2023-05-15T03:10:01.499Z,17.80
2023-05-15T03:12:47.089Z,17.80
2023-05-15T03:15:35.477Z,17.80
2023-05-15T03:18:21.237Z,17.80
2023-05-15T03:21:07.123Z,17.80
2023-05-15T03:23:53.119Z,17.80
2023-05-15T03:26:40.567Z,17.80
2023-05-15T03:29:27.133Z,17.80
2023-05-15T03:32:13.000Z,17.70
2023-05-15T03:34:58.438Z,17.70
2023-05-15T03:37:44.590Z,17.70
2023-05-15T03:40:30.324Z,17.70
2023-05-15T03:43:17.372Z,17.70
2023-05-15T03:46:04.351Z,17.70
2023-05-15T03:48:50.011Z,17.60
2023-05-15T03:51:35.782Z,17.60
2023-05-15T03:54:21.916Z,17.70
2023-05-15T03:57:10.839Z,17.60
2023-05-15T03:59:57.036Z,17.70
2023-05-15T04:02:42.976Z,17.70
2023-05-15T04:05:29.118Z,17.70
2023-05-15T04:08:15.433Z,17.70
2023-05-15T04:11:04.119Z,17.70
2023-05-15T04:13:49.807Z,17.70
2023-05-15T04:16:35.580Z,17.70
2023-05-15T04:19:21.745Z,17.70
2023-05-15T04:22:11.538Z,17.70
2023-05-15T04:24:56.817Z,17.70
2023-05-15T04:27:43.901Z,17.70
2023-05-15T04:30:29.808Z,17.70
2023-05-15T04:33:15.610Z,17.70
2023-05-15T04:36:02.032Z,17.70
2023-05-15T04:38:47.564Z,17.80
2023-05-15T04:41:36.160Z,17.80
2023-05-15T04:44:21.811Z,17.80
2023-05-15T04:47:09.589Z,17.80
2023-05-15T04:49:56.344Z,17.80
2023-05-15T04:52:45.813Z,17.80
2023-05-15T04:55:33.580Z,17.80
2023-05-15T04:58:19.618Z,17.80
2023-05-15T05:01:05.480Z,17.90
2023-05-15T05:03:51.188Z,17.90
2023-05-15T05:06:37.211Z,17.90
2023-05-15T05:09:25.953Z,18.00
2023-05-15T05:12:12.193Z,18.00
2023-05-15T05:14:58.038Z,18.00
2023-05-15T05:17:43.551Z,18.00
2023-05-15T05:20:29.643Z,18.00
2023-05-15T05:23:15.118Z,18.10
2023-05-15T05:26:01.024Z,18.10
2023-05-15T05:28:46.428Z,18.10
2023-05-15T05:31:31.898Z,18.10
2023-05-15T05:34:20.041Z,18.10
2023-05-15T05:37:05.737Z,18.10
2023-05-15T05:39:51.615Z,18.20
2023-05-15T05:42:37.121Z,18.20
2023-05-15T05:45:22.878Z,18.20
2023-05-15T05:48:08.669Z,18.30
2023-05-15T05:50:54.706Z,18.30
2023-05-15T05:53:40.358Z,18.30
2023-05-15T05:56:26.761Z,18.30
2023-05-15T05:59:12.821Z,18.30
2023-05-15T06:01:58.650Z,18.40
2023-05-15T06:04:44.363Z,18.40
2023-05-15T06:07:29.898Z,18.40
2023-05-15T06:10:15.949Z,18.50
2023-05-15T06:13:04.190Z,18.50
2023-05-15T06:15:49.654Z,18.60
2023-05-15T06:18:35.211Z,18.60
2023-05-15T06:21:22.293Z,18.70
2023-05-15T06:24:08.412Z,18.70
2023-05-15T06:26:54.346Z,18.80
2023-05-15T06:29:39.879Z,18.80
2023-05-15T06:32:25.774Z,18.80
2023-05-15T06:35:12.049Z,18.90
2023-05-15T06:37:58.533Z,18.90
2023-05-15T06:40:44.496Z,19.00
2023-05-15T06:43:30.025Z,19.00
2023-05-15T06:46:19.252Z,19.10
2023-05-15T06:49:04.947Z,19.10
2023-05-15T06:51:51.020Z,19.20
2023-05-15T06:54:36.931Z,19.30
2023-05-15T06:57:22.746Z,19.40
2023-05-15T07:00:09.361Z,19.40
2023-05-15T07:03:06.206Z,19.50
2023-05-15T07:05:53.624Z,19.50
2023-05-15T07:08:39.169Z,19.60
2023-05-15T07:11:26.329Z,19.60
2023-05-15T07:14:11.715Z,19.70
2023-05-15T07:16:57.609Z,19.80
2023-05-15T07:19:43.644Z,19.80
2023-05-15T07:22:29.575Z,19.90
2023-05-15T07:25:16.955Z,20.00
2023-05-15T07:28:03.712Z,20.10
2023-05-15T07:30:49.825Z,20.10
2023-05-15T07:33:35.302Z,20.20
2023-05-15T07:36:20.932Z,20.30
2023-05-15T07:39:06.598Z,20.40
2023-05-15T07:41:52.498Z,20.50
2023-05-15T07:44:38.243Z,20.50
2023-05-15T07:47:24.059Z,20.60
2023-05-15T07:50:10.563Z,20.70
2023-05-15T07:52:56.608Z,20.80
2023-05-15T07:55:43.446Z,20.80
2023-05-15T07:58:29.435Z,20.90
2023-05-15T08:01:14.961Z,21.00
2023-05-15T08:04:00.637Z,21.00
2023-05-15T08:06:46.490Z,21.10
2023-05-15T08:09:32.213Z,21.10
2023-05-15T08:12:26.119Z,21.10
2023-05-15T08:15:12.116Z,21.20
2023-05-15T08:17:58.341Z,21.20
2023-05-15T08:20:44.159Z,21.20
2023-05-15T08:23:34.750Z,21.30
2023-05-15T08:26:21.134Z,21.30
2023-05-15T08:29:07.664Z,21.30
2023-05-15T08:31:53.546Z,21.40
2023-05-15T08:34:39.372Z,21.40
2023-05-15T08:37:26.997Z,21.50
2023-05-15T08:40:14.049Z,21.50
2023-05-15T08:43:07.074Z,21.60
2023-05-15T08:45:54.150Z,21.70
2023-05-15T08:48:42.303Z,21.80
2023-05-15T08:51:28.201Z,21.90
2023-05-15T08:54:16.198Z,22.00
2023-05-15T08:57:02.776Z,22.10
2023-05-15T08:59:49.869Z,22.30
2023-05-15T09:02:40.501Z,22.40
2023-05-15T09:05:26.814Z,22.50
2023-05-15T09:08:14.171Z,22.60
2023-05-15T09:11:04.827Z,22.60
2023-05-15T09:13:53.764Z,22.60
2023-05-15T09:16:40.554Z,22.50
2023-05-15T09:19:28.610Z,22.50
2023-05-15T09:22:24.529Z,22.40
2023-05-15T09:25:39.449Z,22.40
2023-05-15T09:28:31.727Z,22.30
2023-05-15T09:31:21.967Z,22.20
2023-05-15T09:34:09.774Z,22.20
2023-05-15T09:37:00.609Z,22.10
2023-05-15T09:39:46.674Z,22.10
2023-05-15T09:42:46.444Z,22.10
2023-05-15T09:45:35.373Z,22.10
2023-05-15T09:48:22.204Z,22.20
2023-05-15T09:51:19.920Z,22.30
2023-05-15T09:54:06.346Z,22.40
2023-05-15T09:56:54.694Z,22.50
2023-05-15T09:59:49.090Z,22.50
2023-05-15T10:02:35.414Z,22.60
2023-05-15T10:05:28.649Z,22.60
2023-05-15T10:08:31.211Z,22.60
2023-05-15T10:11:22.441Z,22.60
2023-05-15T10:14:15.521Z,22.50
2023-05-15T10:17:02.576Z,22.50
2023-05-15T10:19:58.257Z,22.50
2023-05-15T10:22:51.291Z,22.50
2023-05-15T10:26:02.438Z,22.50
2023-05-15T10:28:49.172Z,22.50
2023-05-15T10:31:36.754Z,22.50
2023-05-15T10:34:24.242Z,22.40
2023-05-15T10:37:14.773Z,22.50
2023-05-15T10:40:02.709Z,22.50
2023-05-15T10:42:48.411Z,22.50
2023-05-15T10:45:36.328Z,22.60
2023-05-15T10:48:23.931Z,22.70
2023-05-15T10:51:26.183Z,22.70
2023-05-15T10:54:15.756Z,22.80
2023-05-15T10:57:05.952Z,22.80
2023-05-15T10:59:54.374Z,22.80
2023-05-15T11:02:40.514Z,22.70
2023-05-15T11:05:29.208Z,22.70
2023-05-15T11:08:28.600Z,22.60
2023-05-15T11:11:52.485Z,22.50
2023-05-15T11:14:39.698Z,22.40
2023-05-15T11:17:27.321Z,22.40
2023-05-15T11:20:13.634Z,22.20
2023-05-15T11:23:00.127Z,22.10
2023-05-15T11:25:57.656Z,22.00
2023-05-15T11:28:46.051Z,21.90
2023-05-15T11:31:32.341Z,21.90
2023-05-15T11:34:33.770Z,21.80
2023-05-15T11:37:22.050Z,21.80
2023-05-15T11:45:03.470Z,21.80
2023-05-15T11:47:56.801Z,21.90
2023-05-15T11:50:43.574Z,21.90
2023-05-15T11:53:31.502Z,22.00
2023-05-15T11:56:30.675Z,22.00
2023-05-15T11:59:21.885Z,22.00
2023-05-15T12:02:11.349Z,22.10
2023-05-15T12:04:57.458Z,22.00
2023-05-15T12:07:44.568Z,22.00
2023-05-15T12:10:31.416Z,22.00
2023-05-15T12:13:20.348Z,22.00
2023-05-15T12:16:06.805Z,21.90
2023-05-15T12:18:57.429Z,21.80
2023-05-15T12:21:49.078Z,21.80
2023-05-15T12:24:41.482Z,21.70
2023-05-15T12:27:31.072Z,21.60
2023-05-15T12:30:21.223Z,21.50
2023-05-15T12:33:10.542Z,21.40
2023-05-15T12:36:02.995Z,21.30
2023-05-15T12:38:52.288Z,21.30
2023-05-15T12:41:39.274Z,21.20
2023-05-15T12:44:33.466Z,21.20
2023-05-15T12:47:24.976Z,21.20
2023-05-15T12:50:21.743Z,21.10
2023-05-15T12:53:19.211Z,21.10
2023-05-15T12:56:06.237Z,21.10
2023-05-15T12:58:55.272Z,21.00
2023-05-15T13:01:42.859Z,20.90
2023-05-15T13:04:29.075Z,20.80
2023-05-15T13:07:17.937Z,20.80
2023-05-15T13:10:08.349Z,20.60
2023-05-15T13:12:56.730Z,20.60
2023-05-15T13:15:46.263Z,20.60
2023-05-15T13:18:32.297Z,20.70
2023-05-15T13:21:18.865Z,20.60
2023-05-15T13:24:05.393Z,20.60
2023-05-15T13:26:52.352Z,20.60
2023-05-15T13:29:37.872Z,20.60
2023-05-15T13:32:24.246Z,20.60
2023-05-15T13:35:11.292Z,20.60
2023-05-15T13:37:57.606Z,20.60
2023-05-15T13:40:43.440Z,20.60
2023-05-15T13:43:29.439Z,20.60
2023-05-15T13:46:15.554Z,20.60
2023-05-15T13:49:01.800Z,20.60
2023-05-15T13:51:47.872Z,20.60
2023-05-15T13:54:34.174Z,20.60
2023-05-15T13:57:20.138Z,20.60
2023-05-15T14:00:32.505Z,20.60
2023-05-15T14:03:18.179Z,20.60
2023-05-15T14:06:04.263Z,20.60
2023-05-15T14:08:50.408Z,20.60
2023-05-15T14:11:36.280Z,20.60
2023-05-15T14:14:22.340Z,20.60
2023-05-15T14:17:08.935Z,20.60
2023-05-15T14:19:55.179Z,20.60
2023-05-15T14:22:41.392Z,20.60
2023-05-15T14:25:27.055Z,20.60
2023-05-15T14:28:13.017Z,20.60
2023-05-15T14:31:00.115Z,20.60
2023-05-15T14:33:45.880Z,20.60
2023-05-15T14:36:31.639Z,20.60
2023-05-15T14:39:18.666Z,20.50
2023-05-15T14:42:04.894Z,20.50
2023-05-15T14:44:50.915Z,20.50
2023-05-15T14:47:36.755Z,20.40
2023-05-15T14:50:22.750Z,20.40
2023-05-15T14:53:09.396Z,20.30
2023-05-15T14:55:55.624Z,20.30
2023-05-15T14:58:41.485Z,20.20
2023-05-15T15:01:27.638Z,20.10
2023-05-15T15:04:13.541Z,20.00
2023-05-15T15:07:00.031Z,20.00
2023-05-15T15:09:46.206Z,20.00
2023-05-15T15:12:35.208Z,19.90
2023-05-15T15:15:22.399Z,19.90
2023-05-15T15:18:08.376Z,20.00
2023-05-15T15:20:54.449Z,20.00
2023-05-15T15:23:45.777Z,20.00
2023-05-15T15:26:31.540Z,20.00
2023-05-15T15:29:18.793Z,20.00
2023-05-15T15:32:04.926Z,20.00
2023-05-15T15:34:51.087Z,20.10
2023-05-15T15:37:40.462Z,20.10
2023-05-15T15:40:26.576Z,20.10
2023-05-15T15:43:12.355Z,20.10
2023-05-15T15:45:59.333Z,20.10
2023-05-15T15:48:48.587Z,20.10
2023-05-15T15:51:34.673Z,20.00
2023-05-15T15:54:21.055Z,20.00
2023-05-15T15:57:07.146Z,20.00
2023-05-15T15:59:55.795Z,20.00
2023-05-15T16:02:55.159Z,20.10
2023-05-15T16:05:41.560Z,20.10
2023-05-15T16:08:32.545Z,20.10
2023-05-15T16:11:23.075Z,20.10
2023-05-15T16:14:09.570Z,20.10
2023-05-15T16:16:58.671Z,20.10
2023-05-15T16:19:47.458Z,20.10
2023-05-15T16:22:33.828Z,20.10
2023-05-15T16:25:20.185Z,20.10
2023-05-15T16:28:06.971Z,20.10
2023-05-15T16:30:57.027Z,20.20
2023-05-15T16:33:43.104Z,20.20
2023-05-15T16:36:29.268Z,20.20
2023-05-15T16:39:15.427Z,20.20
2023-05-15T16:42:01.454Z,20.20
2023-05-15T16:44:47.140Z,20.20
2023-05-15T16:47:34.287Z,20.20
2023-05-15T16:50:24.639Z,20.20
2023-05-15T16:53:10.915Z,20.10
2023-05-15T16:55:57.181Z,20.10
2023-05-15T16:58:42.975Z,20.00
2023-05-15T17:01:28.662Z,19.90
2023-05-15T17:04:14.326Z,19.90
2023-05-15T17:07:00.135Z,19.80
2023-05-15T17:09:46.590Z,19.80
2023-05-15T17:12:45.563Z,19.70
2023-05-15T17:15:46.778Z,19.70
2023-05-15T17:18:46.732Z,19.60
2023-05-15T17:21:38.746Z,19.60
2023-05-15T17:24:42.274Z,19.60
2023-05-15T17:27:41.417Z,19.60
2023-05-15T17:30:27.933Z,19.60
2023-05-15T17:33:16.867Z,19.60
2023-05-15T17:36:03.119Z,19.60
2023-05-15T17:38:49.168Z,19.70
2023-05-15T17:41:39.025Z,19.70
2023-05-15T17:44:34.152Z,19.80
2023-05-15T17:47:20.558Z,19.80
2023-05-15T17:50:09.847Z,19.80
2023-05-15T17:52:55.701Z,19.90
2023-05-15T17:55:41.897Z,19.90
2023-05-15T17:58:28.349Z,19.90
2023-05-15T18:01:16.477Z,19.90
2023-05-15T18:04:05.489Z,20.00
2023-05-15T18:06:51.769Z,20.00
2023-05-15T18:09:39.574Z,20.00
2023-05-15T18:12:26.393Z,19.90
2023-05-15T18:15:13.137Z,20.00
2023-05-15T18:17:59.663Z,20.00
2023-05-15T18:20:45.763Z,20.00
2023-05-15T18:23:32.130Z,20.00
2023-05-15T18:26:18.963Z,19.90
2023-05-15T18:29:05.106Z,19.90
2023-05-15T18:31:50.908Z,20.00
2023-05-15T18:34:37.293Z,20.00
2023-05-15T18:37:26.649Z,19.90
2023-05-15T18:40:19.329Z,20.00
2023-05-15T18:43:06.500Z,20.00
2023-05-15T18:45:54.239Z,20.00
2023-05-15T18:48:40.435Z,20.00
2023-05-15T18:51:26.409Z,20.00
2023-05-15T18:54:20.799Z,20.00
2023-05-15T18:57:14.438Z,20.00
2023-05-15T19:00:00.627Z,20.00
2023-05-15T19:02:46.581Z,20.00
2023-05-15T19:05:36.656Z,19.90
2023-05-15T19:08:23.993Z,20.00
2023-05-15T19:11:12.083Z,20.00
2023-05-15T19:14:00.050Z,19.90
2023-05-15T19:16:47.921Z,19.90
2023-05-15T19:19:34.696Z,19.80
2023-05-15T19:22:21.092Z,19.80
2023-05-15T19:25:07.949Z,19.80
2023-05-15T19:27:56.587Z,19.80
2023-05-15T19:30:46.166Z,19.80
2023-05-15T19:33:32.854Z,19.80
2023-05-15T19:36:22.345Z,19.80
2023-05-15T19:39:08.541Z,19.80
2023-05-15T19:41:55.758Z,19.80
2023-05-15T19:44:43.072Z,19.80
2023-05-15T19:47:29.420Z,19.80
2023-05-15T19:50:15.814Z,19.80
2023-05-15T19:53:03.006Z,19.80
2023-05-15T19:55:49.002Z,19.80
2023-05-15T19:58:35.482Z,19.80
2023-05-15T20:01:21.772Z,19.80
2023-05-15T20:04:07.819Z,19.80
2023-05-15T20:06:54.534Z,19.80
2023-05-15T20:09:41.163Z,19.70
2023-05-15T20:12:30.437Z,19.80
2023-05-15T20:15:17.055Z,19.70
2023-05-15T20:18:02.910Z,19.70
2023-05-15T20:20:52.849Z,19.70
2023-05-15T20:23:42.834Z,19.60
2023-05-15T20:26:31.170Z,19.60
2023-05-15T20:29:16.962Z,19.60
2023-05-15T20:32:03.775Z,19.60
2023-05-15T20:34:50.184Z,19.60
2023-05-15T20:37:41.483Z,19.50
2023-05-15T20:40:27.814Z,19.50
2023-05-15T20:43:13.955Z,19.50
2023-05-15T20:46:03.438Z,19.40
2023-05-15T20:48:49.526Z,19.40
2023-05-15T20:51:35.614Z,19.40
2023-05-15T20:54:22.108Z,19.40
2023-05-15T20:57:08.280Z,19.30
2023-05-15T20:59:53.799Z,19.30
2023-05-15T21:02:39.952Z,19.30
2023-05-15T21:05:26.703Z,19.30
2023-05-15T21:08:14.033Z,19.30
2023-05-15T21:11:00.424Z,19.30
2023-05-15T21:13:46.236Z,19.30
2023-05-15T21:16:32.119Z,19.30
2023-05-15T21:19:17.997Z,19.20
2023-05-15T21:22:05.217Z,19.30
2023-05-15T21:24:51.791Z,19.30
2023-05-15T21:27:37.616Z,19.20
2023-05-15T21:30:23.989Z,19.20
2023-05-15T21:33:09.918Z,19.20
2023-05-15T21:35:55.882Z,19.20
2023-05-15T21:38:41.669Z,19.20
2023-05-15T21:41:31.476Z,19.10
2023-05-15T21:44:17.867Z,19.10
2023-05-15T21:47:03.822Z,19.10
2023-05-15T21:49:52.396Z,19.00
2023-05-15T21:52:42.107Z,19.00
2023-05-15T21:55:28.153Z,19.00
2023-05-15T21:58:14.085Z,19.00
2023-05-15T22:05:52.971Z,18.90
2023-05-15T22:08:41.891Z,18.90
2023-05-15T22:11:28.900Z,18.90
2023-05-15T22:14:15.162Z,18.90
2023-05-15T22:17:01.626Z,18.90
2023-05-15T22:19:52.495Z,18.90
2023-05-15T22:22:43.589Z,18.90
2023-05-15T22:25:29.390Z,18.90
2023-05-15T22:28:19.558Z,18.80
2023-05-15T22:31:06.699Z,18.80
2023-05-15T22:33:56.677Z,18.80
2023-05-15T22:37:12.611Z,18.70
2023-05-15T22:40:12.014Z,18.70
2023-05-15T22:43:00.021Z,18.70
2023-05-15T22:45:46.095Z,18.70
2023-05-15T22:48:33.412Z,18.70
2023-05-15T22:51:24.168Z,18.60
2023-05-15T22:54:10.473Z,18.60
2023-05-15T22:56:56.796Z,18.60
2023-05-15T22:59:50.020Z,18.60
2023-05-15T23:06:06.982Z,18.60
2023-05-15T23:08:53.074Z,18.60
2023-05-15T23:11:41.871Z,18.50
2023-05-15T23:14:27.798Z,18.50
2023-05-15T23:17:13.410Z,18.50
2023-05-15T23:19:59.484Z,18.40
2023-05-15T23:22:52.500Z,18.40
2023-05-15T23:25:41.807Z,18.40
2023-05-15T23:28:30.812Z,18.30
2023-05-15T23:31:18.583Z,18.30
2023-05-15T23:34:08.443Z,18.30
2023-05-15T23:36:54.630Z,18.30
2023-05-15T23:39:41.017Z,18.20
2023-05-15T23:42:26.952Z,18.20
2023-05-15T23:45:13.947Z,18.20
2023-05-15T23:47:59.753Z,18.20
2023-05-15T23:50:45.681Z,18.10
2023-05-15T23:53:31.918Z,18.10
2023-05-15T23:56:23.789Z,18.10
2023-05-15T23:59:11.133Z,18.00
